createdAt,value
2018-08-28T00:01:37.118Z,2.27
2018-08-28T00:04:05.994Z,2.20
2018-08-28T00:06:35.200Z,2.33
2018-08-28T00:09:04.856Z,2.40
2018-08-28T00:11:33.683Z,2.58
2018-08-28T00:14:02.846Z,2.47
2018-08-28T00:16:31.750Z,2.50
2018-08-28T00:19:00.940Z,3.30
2018-08-28T00:21:29.784Z,3.35
2018-08-28T00:23:58.609Z,2.72
2018-08-28T00:26:27.428Z,2.60
2018-08-28T00:28:56.315Z,3.70
2018-08-28T00:31:25.147Z,3.27
2018-08-28T00:33:54.005Z,2.85
2018-08-28T00:36:22.855Z,3.05
2018-08-28T00:38:51.921Z,3.12
2018-08-28T00:41:20.766Z,3.20
2018-08-28T00:43:49.634Z,3.08
2018-08-28T00:46:18.778Z,2.80
2018-08-28T00:48:47.615Z,2.72
2018-08-28T00:51:16.412Z,3.22
2018-08-28T00:53:45.243Z,3.08
2018-08-28T00:56:14.085Z,3.22
2018-08-28T00:58:42.922Z,3.22
2018-08-28T01:01:11.738Z,3.45
2018-08-28T01:03:40.564Z,3.58
2018-08-28T01:06:09.428Z,3.35
2018-08-28T01:08:38.288Z,3.00
2018-08-28T01:11:07.489Z,3.35
2018-08-28T01:13:36.324Z,3.47
2018-08-28T01:16:05.506Z,2.47
2018-08-28T01:18:34.357Z,2.90
2018-08-28T01:21:03.223Z,2.98
2018-08-28T01:23:32.368Z,3.27
2018-08-28T01:26:01.191Z,2.83
2018-08-28T01:28:30.027Z,2.85
2018-08-28T01:30:58.843Z,3.35
2018-08-28T01:33:27.706Z,3.08
2018-08-28T01:35:56.526Z,3.40
2018-08-28T01:38:25.312Z,2.90
2018-08-28T01:40:54.152Z,3.47
2018-08-28T01:43:23.562Z,3.00
2018-08-28T01:45:54.124Z,3.08
2018-08-28T01:48:22.952Z,3.35
2018-08-28T01:50:51.789Z,3.75
2018-08-28T01:53:20.771Z,3.77
2018-08-28T01:55:49.755Z,3.52
2018-08-28T01:58:18.605Z,3.90
2018-08-28T02:00:47.450Z,3.95
2018-08-28T02:03:16.583Z,3.77
2018-08-28T02:05:45.827Z,3.87
2018-08-28T02:08:15.747Z,3.45
2018-08-28T02:10:44.616Z,3.72
2018-08-28T02:13:13.503Z,4.00
2018-08-28T02:15:42.492Z,3.70
2018-08-28T02:18:11.316Z,3.83
2018-08-28T02:20:40.175Z,3.77
2018-08-28T02:23:09.014Z,4.10
2018-08-28T02:25:37.883Z,3.55
2018-08-28T02:28:06.719Z,4.00
2018-08-28T02:30:35.818Z,3.60
2018-08-28T02:33:04.802Z,4.20
2018-08-28T02:35:33.678Z,4.37
2018-08-28T02:38:02.504Z,4.00
2018-08-28T02:40:31.442Z,4.28
2018-08-28T02:43:00.244Z,4.22
2018-08-28T02:45:29.076Z,4.03
2018-08-28T02:47:58.067Z,4.12
2018-08-28T02:50:26.948Z,4.37
2018-08-28T02:52:55.867Z,4.20
2018-08-28T02:55:24.687Z,4.10
2018-08-28T02:57:53.525Z,4.83
2018-08-28T03:00:22.334Z,4.53
2018-08-28T03:02:51.465Z,4.50
2018-08-28T03:05:20.474Z,5.10
2018-08-28T03:07:49.300Z,4.92
2018-08-28T03:10:18.128Z,4.37
2018-08-28T03:12:46.986Z,4.10
2018-08-28T03:15:15.806Z,4.47
2018-08-28T03:17:44.659Z,5.25
2018-08-28T03:20:13.477Z,4.60
2018-08-28T03:22:42.305Z,4.55
2018-08-28T03:25:11.465Z,4.90
2018-08-28T03:27:40.306Z,4.90
2018-08-28T03:30:09.183Z,4.87
2018-08-28T03:32:38.212Z,4.67
2018-08-28T03:35:07.087Z,4.87
2018-08-28T03:37:35.923Z,4.83
2018-08-28T03:40:05.777Z,4.80
2018-08-28T03:42:34.615Z,4.75
2018-08-28T03:45:03.443Z,5.50
2018-08-28T03:47:32.422Z,5.40
2018-08-28T03:50:01.285Z,5.70
2018-08-28T03:52:30.136Z,5.40
2018-08-28T03:54:58.980Z,5.28
2018-08-28T03:57:27.808Z,5.25
2018-08-28T03:59:56.658Z,5.37
2018-08-28T04:02:25.507Z,5.65
2018-08-28T04:04:54.402Z,5.08
2018-08-28T04:07:23.220Z,5.03
2018-08-28T04:09:52.058Z,5.20
2018-08-28T04:12:21.211Z,5.17
2018-08-28T04:14:50.061Z,5.10
2018-08-28T04:17:18.888Z,5.33
2018-08-28T04:19:47.698Z,5.17
2018-08-28T04:22:16.543Z,5.55
2018-08-28T04:24:45.401Z,5.53
2018-08-28T04:27:14.256Z,5.37
2018-08-28T04:29:43.136Z,5.83
2018-08-28T04:32:12.018Z,5.95
2018-08-28T04:34:40.860Z,5.25
2018-08-28T04:37:09.717Z,5.00
2018-08-28T04:39:38.567Z,5.33
2018-08-28T04:42:07.407Z,5.47
2018-08-28T04:44:36.509Z,5.80
2018-08-28T04:47:05.455Z,5.40
2018-08-28T04:49:34.286Z,5.53
2018-08-28T04:52:03.134Z,5.10
2018-08-28T04:54:31.974Z,5.25
2018-08-28T04:57:00.854Z,4.20
2018-08-28T04:59:29.700Z,4.90
2018-08-28T05:01:58.425Z,4.83
2018-08-28T05:04:27.272Z,5.30
2018-08-28T05:06:56.128Z,5.17
2018-08-28T05:09:24.972Z,5.80
2018-08-28T05:11:53.908Z,5.37
2018-08-28T05:14:22.845Z,4.95
2018-08-28T05:16:51.689Z,5.30
2018-08-28T05:19:20.595Z,5.30
2018-08-28T05:21:49.614Z,5.67
2018-08-28T05:24:18.446Z,5.22
2018-08-28T05:26:47.351Z,5.03
2018-08-28T05:29:16.184Z,5.25
2018-08-28T05:31:45.008Z,5.08
2018-08-28T05:34:13.859Z,5.17
2018-08-28T05:36:42.708Z,5.30
2018-08-28T05:39:11.586Z,5.58
2018-08-28T05:41:40.993Z,4.90
2018-08-28T05:44:12.299Z,5.25
2018-08-28T05:46:41.181Z,5.58
2018-08-28T05:49:10.015Z,5.00
2018-08-28T05:51:38.961Z,4.42
2018-08-28T05:54:07.800Z,3.95
2018-08-28T05:56:36.713Z,4.33
2018-08-28T05:59:05.927Z,4.35
2018-08-28T06:01:34.447Z,4.03
2018-08-28T06:10:48.602Z,3.50
2018-08-28T06:13:17.481Z,3.45
2018-08-28T06:15:46.356Z,4.03
2018-08-28T06:18:15.256Z,3.42
2018-08-28T06:20:44.309Z,4.00
2018-08-28T06:23:13.331Z,4.30
2018-08-28T06:25:42.422Z,4.65
2018-08-28T06:28:11.582Z,4.53
2018-08-28T06:30:40.762Z,4.40
2018-08-28T06:33:09.770Z,4.70
2018-08-28T06:35:38.668Z,4.78
2018-08-28T06:38:07.504Z,4.60
2018-08-28T06:40:36.349Z,4.10
2018-08-28T06:43:05.701Z,4.45
2018-08-28T06:45:35.197Z,4.65
2018-08-28T06:48:04.389Z,3.92
2018-08-28T06:50:33.194Z,4.28
2018-08-28T06:53:02.069Z,4.33
2018-08-28T06:55:30.877Z,3.98
2018-08-28T06:57:59.710Z,4.58
2018-08-28T07:00:28.570Z,4.45
2018-08-28T07:02:57.390Z,4.35
2018-08-28T07:05:26.303Z,4.42
2018-08-28T07:10:50.135Z,4.30
2018-08-28T07:13:18.971Z,4.50
2018-08-28T07:15:47.808Z,4.10
2018-08-28T07:18:16.636Z,4.33
2018-08-28T07:20:45.485Z,4.72
2018-08-28T07:23:14.369Z,4.10
2018-08-28T07:25:43.257Z,4.45
2018-08-28T07:28:12.244Z,4.53
2018-08-28T07:30:41.088Z,4.58
2018-08-28T07:33:09.993Z,4.00
2018-08-28T07:35:38.859Z,4.70
2018-08-28T07:38:07.764Z,4.37
2018-08-28T07:40:36.623Z,4.85
2018-08-28T07:43:05.843Z,4.33
2018-08-28T07:45:34.679Z,4.83
2018-08-28T07:48:03.526Z,4.10
2018-08-28T07:53:27.630Z,4.10
2018-08-28T07:55:56.452Z,4.35
2018-08-28T07:58:25.277Z,4.35
2018-08-28T08:00:53.579Z,4.60
2018-08-28T08:03:24.094Z,4.10
2018-08-28T08:05:54.582Z,4.37
2018-08-28T08:08:23.444Z,4.28
2018-08-28T08:10:52.721Z,4.37
2018-08-28T08:13:21.604Z,4.37
2018-08-28T08:15:50.416Z,4.58
2018-08-28T08:18:19.274Z,4.17
2018-08-28T08:20:48.140Z,4.90
2018-08-28T08:23:17.009Z,3.87
2018-08-28T08:25:45.873Z,4.40
2018-08-28T08:28:15.163Z,4.53
2018-08-28T08:30:44.105Z,4.65
2018-08-28T08:33:13.009Z,4.28
2018-08-28T08:35:41.829Z,4.55
2018-08-28T08:38:10.696Z,4.53
2018-08-28T08:40:39.548Z,4.50
2018-08-28T08:43:08.392Z,4.70
2018-08-28T08:45:37.237Z,4.65
2018-08-28T08:48:06.085Z,4.70
2018-08-28T08:50:34.945Z,4.95
2018-08-28T08:53:03.780Z,4.80
2018-08-28T08:55:32.980Z,4.37
2018-08-28T08:58:01.858Z,5.30
2018-08-28T09:00:30.725Z,5.25
2018-08-28T09:02:59.531Z,4.57
2018-08-28T09:05:28.384Z,4.55
2018-08-28T09:07:57.264Z,4.90
2018-08-28T09:10:26.172Z,5.40
2018-08-28T09:12:55.068Z,4.83
2018-08-28T09:15:24.625Z,4.53
2018-08-28T09:17:53.472Z,4.95
2018-08-28T09:20:22.324Z,4.67
2018-08-28T09:22:51.216Z,4.75
2018-08-28T09:25:20.141Z,4.83
2018-08-28T09:27:49.049Z,5.00
2018-08-28T09:30:17.898Z,4.90
2018-08-28T09:32:46.762Z,4.80
2018-08-28T09:35:15.594Z,4.80
2018-08-28T09:37:44.996Z,4.72
2018-08-28T09:40:13.904Z,4.65
2018-08-28T09:42:42.829Z,5.08
2018-08-28T09:45:11.692Z,5.15
2018-08-28T09:47:40.596Z,4.72
2018-08-28T09:50:09.451Z,4.45
2018-08-28T09:52:38.537Z,4.62
2018-08-28T09:55:07.714Z,4.53
2018-08-28T09:57:36.545Z,3.90
2018-08-28T10:00:07.250Z,3.92
2018-08-28T10:02:36.087Z,4.07
2018-08-28T10:05:04.968Z,4.17
2018-08-28T10:07:33.796Z,4.55
2018-08-28T10:10:02.669Z,4.85
2018-08-28T10:12:31.494Z,4.92
2018-08-28T10:15:00.336Z,5.03
2018-08-28T10:17:29.166Z,5.00
2018-08-28T10:19:58.237Z,5.22
2018-08-28T10:22:32.581Z,6.20
2018-08-28T10:25:01.422Z,5.83
2018-08-28T10:27:30.379Z,6.20
2018-08-28T10:29:59.308Z,5.45
2018-08-28T10:32:28.260Z,5.62
2018-08-28T10:34:57.090Z,4.65
2018-08-28T10:37:25.922Z,4.83
2018-08-28T10:39:54.762Z,5.22
2018-08-28T10:42:23.644Z,4.85
2018-08-28T10:44:58.581Z,5.28
2018-08-28T10:47:27.640Z,5.15
2018-08-28T10:49:56.489Z,4.62
2018-08-28T10:52:25.331Z,4.78
2018-08-28T10:54:54.220Z,5.20
2018-08-28T10:57:23.098Z,5.25
2018-08-28T10:59:52.143Z,5.15
2018-08-28T11:02:20.714Z,5.63
2018-08-28T11:04:49.671Z,4.72
2018-08-28T11:07:19.795Z,4.95
2018-08-28T11:09:48.664Z,5.50
2018-08-28T11:12:17.483Z,4.87
2018-08-28T11:14:46.330Z,4.97
2018-08-28T11:17:15.138Z,5.03
2018-08-28T11:19:43.955Z,4.45
2018-08-28T11:22:12.876Z,4.80
2018-08-28T11:24:41.886Z,4.25
2018-08-28T11:27:10.737Z,4.30
2018-08-28T11:29:41.287Z,4.40
2018-08-28T11:32:10.119Z,4.08
2018-08-28T11:34:38.937Z,3.50
2018-08-28T11:37:07.803Z,3.33
2018-08-28T11:39:36.702Z,4.05
2018-08-28T11:42:05.629Z,4.15
2018-08-28T11:44:34.512Z,4.37
2018-08-28T11:47:03.386Z,4.10
2018-08-28T11:49:32.398Z,4.40
2018-08-28T11:52:01.266Z,4.80
2018-08-28T11:54:30.096Z,3.83
2018-08-28T11:56:59.016Z,4.78
2018-08-28T11:59:27.842Z,4.65
2018-08-28T12:01:56.486Z,4.30
2018-08-28T12:04:25.551Z,4.17
2018-08-28T12:06:54.713Z,4.60
2018-08-28T12:09:23.540Z,4.30
2018-08-28T12:11:52.452Z,4.33
2018-08-28T12:14:21.088Z,4.00
2018-08-28T12:16:49.722Z,4.60
2018-08-28T12:19:18.476Z,4.77
2018-08-28T12:21:47.096Z,4.70
2018-08-28T12:24:17.055Z,4.97
2018-08-28T12:26:45.727Z,4.60
2018-08-28T12:29:14.448Z,5.07
2018-08-28T12:31:42.996Z,5.20
2018-08-28T12:34:11.877Z,4.70
2018-08-28T12:36:40.800Z,5.20
2018-08-28T12:39:09.961Z,5.60
2018-08-28T12:41:39.182Z,4.85
2018-08-28T12:44:08.191Z,5.35
2018-08-28T12:46:38.606Z,5.35
2018-08-28T12:49:07.490Z,5.28
2018-08-28T12:51:36.528Z,5.28
2018-08-28T12:54:05.783Z,5.30
2018-08-28T12:56:34.831Z,5.55
2018-08-28T12:59:04.042Z,5.50
2018-08-28T13:01:32.597Z,5.40
2018-08-28T13:04:01.422Z,5.50
2018-08-28T13:06:30.309Z,6.08
2018-08-28T13:08:59.133Z,5.12
2018-08-28T13:11:28.124Z,4.60
2018-08-28T13:13:57.135Z,4.47
2018-08-28T13:16:26.132Z,4.97
2018-08-28T13:18:55.015Z,4.00
2018-08-28T13:21:23.880Z,4.33
2018-08-28T13:23:52.729Z,5.62
2018-08-28T13:26:21.567Z,4.28
2018-08-28T13:28:50.424Z,4.62
2018-08-28T13:31:22.505Z,4.10
2018-08-28T13:33:51.931Z,4.53
2018-08-28T13:36:20.797Z,4.65
2018-08-28T13:38:49.621Z,5.08
2018-08-28T13:41:18.476Z,5.12
2018-08-28T13:43:47.532Z,5.65
2018-08-28T13:46:16.417Z,5.42
2018-08-28T13:48:45.315Z,4.50
2018-08-28T13:51:14.205Z,4.60
2018-08-28T13:53:43.675Z,4.45
2018-08-28T13:56:12.544Z,4.30
2018-08-28T13:58:41.422Z,4.78
2018-08-28T14:01:09.727Z,4.40
2018-08-28T14:03:38.571Z,4.65
2018-08-28T14:06:07.390Z,5.85
2018-08-28T14:08:36.227Z,6.10
2018-08-28T14:11:05.068Z,5.72
2018-08-28T14:13:33.988Z,6.10
2018-08-28T14:16:02.895Z,6.65
2018-08-28T14:18:31.760Z,5.70
2018-08-28T14:21:00.651Z,5.75
2018-08-28T14:23:29.512Z,5.87
2018-08-28T14:25:58.353Z,5.70
2018-08-28T14:28:27.732Z,5.35
2018-08-28T14:30:56.956Z,5.03
2018-08-28T14:33:25.800Z,5.10
2018-08-28T14:35:56.510Z,5.45
2018-08-28T14:38:25.345Z,5.33
2018-08-28T14:40:54.423Z,5.80
2018-08-28T14:43:23.325Z,5.95
2018-08-28T14:45:52.375Z,6.60
2018-08-28T14:48:21.454Z,6.60
2018-08-28T14:50:50.336Z,6.40
2018-08-28T14:53:19.220Z,6.28
2018-08-28T14:55:48.094Z,6.92
2018-08-28T14:58:16.953Z,6.80
2018-08-28T15:00:45.503Z,6.87
2018-08-28T15:03:14.103Z,6.23
2018-08-28T15:05:42.951Z,6.37
2018-08-28T15:08:11.845Z,6.72
2018-08-28T15:10:40.745Z,6.78
2018-08-28T15:13:09.331Z,9.03
2018-08-28T15:15:38.288Z,7.28
2018-08-28T15:18:07.774Z,6.80
2018-08-28T15:20:36.432Z,6.60
2018-08-28T15:23:05.245Z,6.77
2018-08-28T15:25:34.433Z,7.30
2018-08-28T15:28:03.189Z,8.50
2018-08-28T15:30:32.112Z,7.70
2018-08-28T15:33:01.213Z,7.37
2018-08-28T15:35:30.084Z,6.90
2018-08-28T15:37:58.704Z,7.10
2018-08-28T15:40:27.383Z,7.27
2018-08-28T15:42:55.993Z,7.00
2018-08-28T15:45:24.744Z,6.30
2018-08-28T15:47:53.416Z,6.40
2018-08-28T15:50:21.961Z,6.87
2018-08-28T15:52:50.507Z,6.77
2018-08-28T15:55:19.330Z,6.40
2018-08-28T15:57:47.973Z,6.63
2018-08-28T16:00:16.762Z,6.53
2018-08-28T16:02:45.378Z,6.00
2018-08-28T16:05:13.977Z,6.67
2018-08-28T16:07:42.603Z,6.90
2018-08-28T16:10:11.213Z,6.87
2018-08-28T16:12:39.828Z,6.40
2018-08-28T16:15:08.397Z,6.47
2018-08-28T16:17:37.061Z,6.17
2018-08-28T16:20:05.638Z,6.60
2018-08-28T16:22:37.868Z,7.63
2018-08-28T16:25:06.474Z,6.67
2018-08-28T16:27:35.042Z,6.57
2018-08-28T16:30:03.900Z,7.30
2018-08-28T16:32:32.458Z,7.10
2018-08-28T16:35:01.036Z,6.93
2018-08-28T16:37:29.576Z,6.50
2018-08-28T16:39:58.150Z,6.40
2018-08-28T16:42:26.742Z,6.40
2018-08-28T16:44:55.413Z,6.70
2018-08-28T16:47:23.954Z,7.03
2018-08-28T16:49:52.530Z,6.07
2018-08-28T16:52:21.086Z,6.77
2018-08-28T16:54:49.732Z,7.23
2018-08-28T16:57:18.381Z,6.80
2018-08-28T16:59:47.221Z,6.90
2018-08-28T17:02:15.819Z,6.37
2018-08-28T17:04:44.635Z,7.67
2018-08-28T17:07:13.253Z,7.93
2018-08-28T17:09:42.275Z,7.42
2018-08-28T17:12:11.213Z,7.47
2018-08-28T17:14:40.204Z,7.97
2018-08-28T17:17:09.218Z,7.22
2018-08-28T17:19:38.038Z,7.17
2018-08-28T17:22:07.209Z,8.40
2018-08-28T17:24:36.305Z,8.03
2018-08-28T17:27:05.853Z,7.80
2018-08-28T17:29:35.015Z,7.80
2018-08-28T17:32:04.276Z,7.40
2018-08-28T17:34:33.219Z,7.47
2018-08-28T17:37:02.125Z,7.37
2018-08-28T17:39:31.182Z,7.85
2018-08-28T17:42:00.113Z,6.97
2018-08-28T17:44:29.164Z,7.33
2018-08-28T17:46:58.194Z,7.65
2018-08-28T17:49:27.044Z,7.28
2018-08-28T17:51:55.948Z,7.22
2018-08-28T17:54:25.659Z,7.62
2018-08-28T17:56:54.577Z,6.70
2018-08-28T17:59:23.620Z,7.40
2018-08-28T18:01:52.234Z,7.17
2018-08-28T18:04:21.061Z,7.28
2018-08-28T18:06:50.013Z,7.83
2018-08-28T18:09:18.931Z,7.58
2018-08-28T18:11:47.805Z,8.10
2018-08-28T18:14:17.053Z,8.55
2018-08-28T18:16:47.637Z,8.20
2018-08-28T18:19:16.566Z,8.63
2018-08-28T18:21:45.432Z,8.03
2018-08-28T18:24:14.297Z,8.78
2018-08-28T18:26:43.169Z,8.68
2018-08-28T18:29:12.014Z,8.58
2018-08-28T18:31:40.932Z,8.65
2018-08-28T18:34:09.828Z,9.25
2018-08-28T18:36:38.663Z,8.73
2018-08-28T18:39:08.622Z,9.13
2018-08-28T18:41:37.601Z,8.68
2018-08-28T18:44:06.519Z,9.43
2018-08-28T18:46:35.811Z,10.13
2018-08-28T18:49:05.169Z,9.40
2018-08-28T18:51:34.036Z,9.35
2018-08-28T18:54:03.109Z,9.53
2018-08-28T18:56:31.969Z,9.25
2018-08-28T18:59:00.851Z,11.35
2018-08-28T19:01:29.473Z,13.23
2018-08-28T19:03:58.507Z,17.95
2018-08-28T19:06:27.431Z,17.77
2018-08-28T19:08:56.670Z,17.00
2018-08-28T19:11:25.590Z,16.62
2018-08-28T19:13:54.444Z,15.75
2018-08-28T19:16:24.954Z,13.88
2018-08-28T19:18:53.822Z,12.80
2018-08-28T19:21:22.730Z,12.23
2018-08-28T19:23:51.575Z,13.13
2018-08-28T19:26:20.470Z,15.03
2018-08-28T19:28:49.389Z,15.38
2018-08-28T19:31:18.324Z,16.02
2018-08-28T19:33:47.219Z,14.98
2018-08-28T19:36:16.148Z,17.25
2018-08-28T19:38:45.172Z,15.00
2018-08-28T19:41:14.044Z,13.78
2018-08-28T19:43:42.962Z,14.53
2018-08-28T19:46:11.858Z,15.03
2018-08-28T19:48:40.727Z,14.85
2018-08-28T19:51:09.690Z,15.80
2018-08-28T19:53:40.664Z,15.60
2018-08-28T19:56:10.020Z,15.75
2018-08-28T19:58:38.902Z,21.05
2018-08-28T20:01:07.509Z,15.90
2018-08-28T20:03:36.405Z,16.10
2018-08-28T20:06:05.608Z,15.43
2018-08-28T20:08:33.884Z,15.87
2018-08-28T20:11:02.878Z,16.40
2018-08-28T20:13:31.247Z,15.27
2018-08-28T20:15:59.540Z,16.43
2018-08-28T20:18:27.914Z,15.47
2018-08-28T20:20:56.418Z,15.90
2018-08-28T20:23:25.455Z,16.20
2018-08-28T20:25:53.776Z,15.07
2018-08-28T20:28:22.098Z,16.03
2018-08-28T20:30:50.754Z,17.03
2018-08-28T20:33:19.630Z,16.93
2018-08-28T20:35:48.496Z,16.82
2018-08-28T20:38:26.567Z,17.00
2018-08-28T20:40:54.878Z,16.80
2018-08-28T20:43:23.197Z,17.03
2018-08-28T20:45:51.510Z,16.63
2018-08-28T20:48:20.584Z,18.10
2018-08-28T20:50:48.912Z,18.40
2018-08-28T20:53:17.243Z,17.73
2018-08-28T20:55:46.387Z,18.57
2018-08-28T20:58:14.694Z,18.13
2018-08-28T21:00:42.979Z,19.27
2018-08-28T21:03:11.345Z,18.17
2018-08-28T21:05:39.707Z,18.83
2018-08-28T21:08:07.966Z,18.90
2018-08-28T21:10:36.285Z,17.77
2018-08-28T21:13:04.662Z,19.93
2018-08-28T21:15:33.143Z,18.67
2018-08-28T21:18:01.795Z,18.67
2018-08-28T21:20:30.061Z,16.77
2018-08-28T21:22:58.378Z,18.40
2018-08-28T21:25:26.872Z,17.53
2018-08-28T21:27:55.182Z,17.37
2018-08-28T21:30:23.507Z,19.50
2018-08-28T21:32:51.787Z,18.70
2018-08-28T21:35:20.079Z,18.87
2018-08-28T21:37:48.374Z,18.03
2018-08-28T21:40:16.663Z,19.10
2018-08-28T21:49:29.241Z,18.77
2018-08-28T21:51:57.527Z,20.10
2018-08-28T21:54:25.904Z,20.67
2018-08-28T21:56:54.201Z,20.37
2018-08-28T21:59:22.533Z,21.33
2018-08-28T22:01:51.415Z,21.53
2018-08-28T22:04:19.727Z,20.93
2018-08-28T22:06:53.524Z,21.07
2018-08-28T22:09:22.304Z,18.80
2018-08-28T22:11:50.611Z,21.27
2018-08-28T22:14:18.922Z,20.47
2018-08-28T22:16:47.204Z,18.30
2018-08-28T22:19:15.741Z,20.40
2018-08-28T22:21:44.070Z,18.80
2018-08-28T22:24:12.369Z,18.80
2018-08-28T22:26:40.644Z,18.33
2018-08-28T22:29:08.917Z,18.50
2018-08-28T22:31:37.539Z,17.37
2018-08-28T22:34:05.920Z,18.20
2018-08-28T22:36:34.280Z,19.73
2018-08-28T22:39:02.605Z,18.43
2018-08-28T22:41:30.959Z,18.97
2018-08-28T22:43:59.245Z,18.50
2018-08-28T22:46:27.554Z,18.80
2018-08-28T22:48:55.972Z,19.37
2018-08-28T22:51:24.318Z,18.50
2018-08-28T22:53:53.703Z,18.60
2018-08-28T22:56:22.033Z,18.77
2018-08-28T22:58:50.321Z,19.20
2018-08-28T23:01:18.654Z,18.97
2018-08-28T23:03:47.123Z,18.67
2018-08-28T23:06:15.430Z,20.07
2018-08-28T23:08:43.719Z,19.70
2018-08-28T23:11:12.051Z,19.87
2018-08-28T23:13:40.386Z,18.93
2018-08-28T23:16:08.705Z,19.67
2018-08-28T23:18:37.071Z,19.97
2018-08-28T23:21:05.388Z,20.27
2018-08-28T23:23:33.821Z,20.73
2018-08-28T23:26:02.091Z,21.93
2018-08-28T23:28:30.413Z,21.20
2018-08-28T23:30:58.694Z,19.90
2018-08-28T23:33:27.429Z,20.53
2018-08-28T23:35:55.749Z,20.27
2018-08-28T23:38:24.356Z,20.50
2018-08-28T23:40:52.673Z,20.53
2018-08-28T23:43:21.019Z,20.37
2018-08-28T23:45:49.303Z,20.27
2018-08-28T23:48:17.647Z,20.77
2018-08-28T23:50:45.958Z,18.80
2018-08-28T23:53:14.272Z,19.87
2018-08-28T23:55:42.655Z,19.63
2018-08-28T23:58:10.939Z,21.73
